createdAt,value
2023-03-11T00:00:00.187Z,2.43
2023-03-11T00:02:27.552Z,2.57
2023-03-11T00:04:54.557Z,4.03
2023-03-11T00:07:21.588Z,2.40
2023-03-11T00:09:48.465Z,2.53
2023-03-11T00:12:15.437Z,1.77
2023-03-11T00:14:42.325Z,2.50
2023-03-11T00:17:09.315Z,3.60
2023-03-11T00:19:36.304Z,2.67
2023-03-11T00:22:03.335Z,2.57
2023-03-11T00:24:30.622Z,2.73
2023-03-11T00:26:57.708Z,2.00
2023-03-11T00:29:24.680Z,2.87
2023-03-11T00:31:51.683Z,2.37
2023-03-11T00:34:18.769Z,3.47
2023-03-11T00:36:46.574Z,3.20
2023-03-11T06:59:37.238Z,1.63
2023-03-11T07:02:06.043Z,1.30
2023-03-11T07:04:33.254Z,1.13
2023-03-11T07:07:00.856Z,1.13
2023-03-11T07:09:29.409Z,1.43
2023-03-11T07:11:56.643Z,0.80
2023-03-11T07:14:31.565Z,0.83
2023-03-11T07:16:58.680Z,0.53
2023-03-11T07:19:41.016Z,0.67
2023-03-11T07:22:08.002Z,0.47
2023-03-11T07:24:35.111Z,0.53
2023-03-11T07:27:02.150Z,1.40
2023-03-11T07:29:29.079Z,1.00
2023-03-11T07:31:56.038Z,1.10
2023-03-11T07:34:24.486Z,1.03
2023-03-11T07:36:51.570Z,1.07
2023-03-11T07:39:19.176Z,1.00
2023-03-11T07:41:46.526Z,1.20
2023-03-11T07:44:14.512Z,0.87
2023-03-11T07:46:41.500Z,0.97
2023-03-11T07:49:08.807Z,1.20
2023-03-11T07:51:36.880Z,0.90
2023-03-11T07:54:04.789Z,0.90
2023-03-11T07:56:34.176Z,1.20
2023-03-11T07:59:01.726Z,0.70
2023-03-11T08:01:35.899Z,1.27
2023-03-11T08:04:04.491Z,0.70
2023-03-11T08:06:33.370Z,0.50
2023-03-11T08:09:01.087Z,0.37
2023-03-11T08:11:28.627Z,0.10
2023-03-11T08:13:57.788Z,0.20
2023-03-11T08:16:24.869Z,0.40
2023-03-11T08:18:52.263Z,0.10
2023-03-11T08:21:22.301Z,0.30
2023-03-11T08:23:49.898Z,0.30
2023-03-11T08:26:24.567Z,0.40
2023-03-11T08:28:51.781Z,0.30
2023-03-11T08:31:20.716Z,0.20
2023-03-11T08:33:51.873Z,0.30
2023-03-11T08:36:19.521Z,0.20
2023-03-11T08:38:46.678Z,0.20
2023-03-11T08:41:14.018Z,0.10
2023-03-11T08:43:42.304Z,0.10
2023-03-11T08:46:14.431Z,0.10
2023-03-11T08:48:41.828Z,0.00
2023-03-11T08:51:13.001Z,0.10
2023-03-11T08:53:40.140Z,0.10
2023-03-11T08:56:07.318Z,0.00
2023-03-11T08:58:34.641Z,0.00
2023-03-11T09:01:01.689Z,0.10
2023-03-11T09:03:31.878Z,0.10
2023-03-11T09:06:06.267Z,0.10
2023-03-11T09:08:33.352Z,0.10
2023-03-11T09:11:00.434Z,0.00
2023-03-11T09:13:29.230Z,0.03
2023-03-11T09:15:56.228Z,0.20
2023-03-11T09:18:23.500Z,0.10
2023-03-11T09:20:51.170Z,0.00
2023-03-11T09:23:22.033Z,0.10
2023-03-11T09:26:05.870Z,0.00
2023-03-11T09:28:42.174Z,0.00
2023-03-11T09:31:28.487Z,0.10
2023-03-11T09:33:57.607Z,0.00
2023-03-11T09:36:43.720Z,0.30
2023-03-11T09:39:12.138Z,0.10
2023-03-11T09:41:59.286Z,0.10
2023-03-11T09:44:42.688Z,0.00
2023-03-11T09:47:45.860Z,0.08
2023-03-11T09:50:19.621Z,0.00
2023-03-11T09:53:19.422Z,0.00
2023-03-11T09:55:47.401Z,0.00
2023-03-11T09:58:22.296Z,0.10
2023-03-11T10:01:35.854Z,0.00
2023-03-11T10:04:32.681Z,0.00
2023-03-11T10:07:06.917Z,0.10
2023-03-11T10:09:51.107Z,0.00
2023-03-11T10:12:21.880Z,0.10
2023-03-11T10:15:14.721Z,0.00
2023-03-11T10:17:50.590Z,0.00
2023-03-11T10:21:06.046Z,0.15
2023-03-11T10:24:03.084Z,0.00
2023-03-11T10:26:42.064Z,0.00
2023-03-11T10:29:18.282Z,0.00
2023-03-11T10:32:15.651Z,0.10
2023-03-11T10:35:01.438Z,0.00
2023-03-11T10:37:57.989Z,0.05
2023-03-11T10:40:30.894Z,0.00
2023-03-11T10:43:00.887Z,0.10
2023-03-11T10:45:27.907Z,0.00
2023-03-11T10:47:57.961Z,0.10
2023-03-11T10:50:25.246Z,0.00
2023-03-11T10:53:10.245Z,0.00
2023-03-11T10:55:45.626Z,0.00
2023-03-11T10:58:14.602Z,0.00
2023-03-11T11:00:41.964Z,0.40
2023-03-11T11:03:21.805Z,0.00
2023-03-11T11:06:00.185Z,0.10
2023-03-11T11:08:29.022Z,0.00
2023-03-11T11:10:57.633Z,0.20
2023-03-11T11:13:26.227Z,0.00
2023-03-11T11:15:57.218Z,0.10
2023-03-11T11:18:31.525Z,0.10
2023-03-11T11:21:15.257Z,0.00
2023-03-11T11:23:42.868Z,0.10
2023-03-11T11:26:42.496Z,0.10
2023-03-11T11:29:15.403Z,0.00
2023-03-11T11:31:47.003Z,0.10
2023-03-11T11:34:26.988Z,0.00
2023-03-11T11:37:21.432Z,0.00
2023-03-11T11:39:56.175Z,0.00
2023-03-11T11:42:23.623Z,0.32
2023-03-11T11:44:53.442Z,0.03
2023-03-11T11:47:43.077Z,0.00
2023-03-11T11:50:17.351Z,0.10
2023-03-11T11:52:46.436Z,0.00
2023-03-11T11:55:19.988Z,0.10
2023-03-11T11:57:47.625Z,0.00
2023-03-11T12:00:24.906Z,0.00
2023-03-11T12:03:10.786Z,0.00
2023-03-11T12:06:02.008Z,0.00
2023-03-11T12:08:34.566Z,0.00
2023-03-11T12:11:03.154Z,0.00
2023-03-11T12:14:00.436Z,0.35
2023-03-11T12:17:04.257Z,0.00
2023-03-11T12:19:49.915Z,0.30
2023-03-11T12:22:39.879Z,0.17
2023-03-11T12:25:21.903Z,0.00
2023-03-11T12:27:57.554Z,0.00
2023-03-11T12:30:30.184Z,0.15
2023-03-11T12:33:03.562Z,0.00
2023-03-11T12:35:34.877Z,0.10
2023-03-11T12:38:15.841Z,0.30
2023-03-11T12:40:42.830Z,0.00
2023-03-11T12:43:33.759Z,0.10
2023-03-11T12:46:07.663Z,0.00
2023-03-11T12:48:49.797Z,0.00
2023-03-11T12:51:37.496Z,0.00
2023-03-11T12:54:35.261Z,0.38
2023-03-11T12:57:17.509Z,0.10
2023-03-11T13:00:12.411Z,0.10
2023-03-11T13:03:02.340Z,0.00
2023-03-11T13:05:57.709Z,0.00
2023-03-11T13:08:28.537Z,0.00
2023-03-11T13:11:00.310Z,0.10
2023-03-11T13:13:42.240Z,0.32
2023-03-11T13:16:15.367Z,0.00
2023-03-11T13:18:46.693Z,0.00
2023-03-11T13:21:31.863Z,0.00
2023-03-11T13:24:37.080Z,0.03
2023-03-11T13:27:11.204Z,0.00
2023-03-11T13:30:18.527Z,0.00
2023-03-11T13:32:54.558Z,0.20
2023-03-11T13:35:28.828Z,0.00
2023-03-11T13:38:20.480Z,0.47
2023-03-11T13:40:47.664Z,0.00
2023-03-11T13:43:23.088Z,0.00
2023-03-11T13:46:05.827Z,0.00
2023-03-11T13:48:42.263Z,0.00
2023-03-11T13:51:23.040Z,0.00
2023-03-11T13:53:52.962Z,0.10
2023-03-11T13:56:26.094Z,0.10
2023-03-11T13:58:53.095Z,0.00
2023-03-11T14:01:23.898Z,0.00
2023-03-11T14:03:50.953Z,0.00
2023-03-11T14:06:19.756Z,0.00
2023-03-11T14:08:54.397Z,0.00
2023-03-11T14:11:26.522Z,0.00
2023-03-11T14:13:54.035Z,0.00
2023-03-11T14:16:36.494Z,0.10
2023-03-11T14:19:16.503Z,0.00
2023-03-11T14:21:44.266Z,0.10
2023-03-11T14:24:18.288Z,0.00
2023-03-11T14:26:45.351Z,0.00
2023-03-11T14:29:15.598Z,0.00
2023-03-11T14:31:46.473Z,0.00
2023-03-11T14:34:18.478Z,0.00
2023-03-11T14:36:52.657Z,0.13
2023-03-11T14:39:38.801Z,0.00
2023-03-11T14:42:18.940Z,0.15
2023-03-11T14:45:12.384Z,0.00
2023-03-11T14:47:51.386Z,0.28
2023-03-11T14:50:22.498Z,0.10
2023-03-11T14:53:09.338Z,0.03
2023-03-11T14:55:41.799Z,0.00
2023-03-11T14:58:20.929Z,0.00
2023-03-11T15:00:50.340Z,0.00
2023-03-11T15:03:23.664Z,0.28
2023-03-11T15:05:52.114Z,0.00
2023-03-11T15:08:20.134Z,0.00
2023-03-11T15:11:05.815Z,0.17
2023-03-11T15:13:33.198Z,0.00
2023-03-11T15:16:07.761Z,0.00
2023-03-11T15:18:37.774Z,0.10
2023-03-11T15:21:15.509Z,0.00
2023-03-11T15:24:04.944Z,0.00
2023-03-11T15:26:38.210Z,0.00
2023-03-11T15:29:14.359Z,0.00
2023-03-11T15:31:42.613Z,0.00
2023-03-11T15:34:30.922Z,0.00
2023-03-11T15:37:07.160Z,0.00
2023-03-11T15:42:15.451Z,0.00
2023-03-11T15:45:08.671Z,0.10
2023-03-11T15:47:36.138Z,0.10
2023-03-11T15:50:43.091Z,0.08
2023-03-11T15:53:13.852Z,0.00
2023-03-11T15:55:40.789Z,0.05
2023-03-11T15:58:08.155Z,0.00
2023-03-11T16:00:35.948Z,0.00
2023-03-11T16:03:03.277Z,0.10
2023-03-11T16:05:30.422Z,0.10
2023-03-11T16:07:59.760Z,0.00
2023-03-11T16:10:29.360Z,0.10
2023-03-11T16:12:56.472Z,0.08
2023-03-11T16:15:29.123Z,0.00
2023-03-11T16:17:57.727Z,0.00
2023-03-11T16:20:50.346Z,0.10
2023-03-11T16:23:30.730Z,0.10
2023-03-11T16:26:00.864Z,0.03
2023-03-11T16:28:29.349Z,0.10
2023-03-11T16:30:56.559Z,0.00
2023-03-11T16:33:23.512Z,0.00
2023-03-11T16:35:50.564Z,0.00
2023-03-11T16:38:19.422Z,0.03
2023-03-11T16:41:01.489Z,0.00
2023-03-11T16:43:29.209Z,0.00
2023-03-11T16:45:56.436Z,0.00
2023-03-11T16:48:23.816Z,0.00
2023-03-11T16:50:51.012Z,0.00
2023-03-11T16:53:18.756Z,0.00
2023-03-11T16:57:03.584Z,0.00
2023-03-11T16:59:30.564Z,0.00
2023-03-11T17:01:58.014Z,0.00
2023-03-11T17:04:25.100Z,0.00
2023-03-11T17:06:52.222Z,0.00
2023-03-11T17:09:21.185Z,0.00
2023-03-11T17:11:49.902Z,0.00
2023-03-11T17:14:17.508Z,0.00
2023-03-11T17:16:45.250Z,0.00
2023-03-11T17:19:12.630Z,0.00
2023-03-11T17:21:39.963Z,0.00
2023-03-11T17:24:07.379Z,0.93
2023-03-11T17:26:34.410Z,2.60
2023-03-11T17:29:01.301Z,0.00
2023-03-11T17:31:28.594Z,0.00
2023-03-11T17:33:56.332Z,0.00
2023-03-11T17:36:23.497Z,0.00
2023-03-11T17:38:58.546Z,0.00
2023-03-11T17:41:25.849Z,0.00
2023-03-11T17:43:52.945Z,0.00
2023-03-11T17:46:20.803Z,0.00
2023-03-11T17:48:52.599Z,0.00
2023-03-11T17:51:32.529Z,0.07
2023-03-11T17:54:01.663Z,0.00
2023-03-11T17:56:36.849Z,0.07
2023-03-11T17:59:04.941Z,0.00
2023-03-11T18:01:35.967Z,0.10
2023-03-11T18:04:03.657Z,0.00
2023-03-11T18:06:31.265Z,0.00
2023-03-11T18:08:58.579Z,0.10
2023-03-11T18:11:26.721Z,0.10
2023-03-11T18:13:54.127Z,0.10
2023-03-11T18:16:26.156Z,0.10
2023-03-11T18:18:54.915Z,0.00
2023-03-11T18:21:26.572Z,0.10
2023-03-11T18:23:57.419Z,0.10
2023-03-11T18:26:25.045Z,0.10
2023-03-11T18:28:55.994Z,0.10
2023-03-11T18:31:24.202Z,0.10
2023-03-11T18:33:55.094Z,0.60
2023-03-11T18:36:45.711Z,0.20
2023-03-11T18:39:13.794Z,0.20
2023-03-11T18:41:42.122Z,0.20
2023-03-11T18:44:09.219Z,0.10
2023-03-11T18:46:36.688Z,0.17
2023-03-11T18:49:03.858Z,0.10
2023-03-11T18:52:25.186Z,0.47
2023-03-11T18:54:52.237Z,0.20
2023-03-11T18:57:19.322Z,0.20
2023-03-11T18:59:47.709Z,0.30
2023-03-11T19:02:14.843Z,0.30
2023-03-11T19:04:42.023Z,0.30
2023-03-11T19:07:08.959Z,0.30
2023-03-11T19:09:36.046Z,0.10
2023-03-11T19:12:03.280Z,0.10
2023-03-11T19:14:34.327Z,0.20
2023-03-11T19:17:03.369Z,0.30
2023-03-11T19:19:31.862Z,0.47
2023-03-11T19:21:59.133Z,0.40
2023-03-11T19:24:26.285Z,0.17
2023-03-11T19:26:53.512Z,0.20
2023-03-11T19:29:21.622Z,0.20
2023-03-11T19:31:48.590Z,0.10
2023-03-11T19:34:15.755Z,0.40
2023-03-11T19:36:42.700Z,0.30
2023-03-11T19:39:09.812Z,0.60
2023-03-11T19:41:36.904Z,0.20
2023-03-11T19:44:04.401Z,0.30
2023-03-11T19:46:34.682Z,0.47
2023-03-11T19:49:02.245Z,0.20
2023-03-11T19:51:38.775Z,0.30
2023-03-11T19:54:16.214Z,0.50
2023-03-11T19:56:43.823Z,0.23
2023-03-11T19:59:11.202Z,0.30
2023-03-11T20:01:38.451Z,0.30
2023-03-11T20:04:05.857Z,0.20
2023-03-11T20:06:33.037Z,0.20
2023-03-11T20:09:00.872Z,0.30
2023-03-11T20:11:31.158Z,0.20
2023-03-11T20:14:00.154Z,0.67
2023-03-11T20:16:27.247Z,0.37
2023-03-11T20:18:55.471Z,0.40
2023-03-11T20:21:22.989Z,0.40
2023-03-11T20:23:50.012Z,0.50
2023-03-11T20:26:17.832Z,0.20
2023-03-11T20:28:48.097Z,0.43
2023-03-11T20:31:19.794Z,0.30
2023-03-11T20:33:47.667Z,0.57
2023-03-11T20:36:21.201Z,0.33
2023-03-11T20:38:49.244Z,0.40
2023-03-11T20:41:16.407Z,0.43
2023-03-11T20:43:43.668Z,0.50
2023-03-11T20:46:10.999Z,0.90
2023-03-11T20:48:38.222Z,0.30
2023-03-11T20:51:09.149Z,0.50
2023-03-11T20:53:36.196Z,0.70
2023-03-11T20:56:08.315Z,0.83
2023-03-11T20:58:35.604Z,0.80
2023-03-11T21:01:13.946Z,1.20
2023-03-11T21:03:41.186Z,0.73
2023-03-11T21:06:25.317Z,0.50
2023-03-11T21:08:56.262Z,1.13
2023-03-11T21:11:23.927Z,0.77
2023-03-11T21:13:51.587Z,1.23
2023-03-11T21:16:18.984Z,1.10
2023-03-11T21:18:49.272Z,1.50
2023-03-11T21:21:16.999Z,1.00
2023-03-11T21:23:44.123Z,1.00
2023-03-11T21:26:15.112Z,1.47
2023-03-11T21:28:46.271Z,1.10
2023-03-11T21:31:18.640Z,1.20
2023-03-11T21:33:45.981Z,1.53
2023-03-11T21:36:13.605Z,1.27
2023-03-11T21:38:41.342Z,1.43
2023-03-11T21:41:13.701Z,1.03
2023-03-11T21:43:41.831Z,1.20
2023-03-11T21:46:10.344Z,1.70
2023-03-11T21:48:39.612Z,1.30
2023-03-11T21:51:06.950Z,1.90
2023-03-11T21:53:34.061Z,1.87
2023-03-11T21:56:04.740Z,1.70
2023-03-11T21:58:32.368Z,2.13
2023-03-11T22:00:59.796Z,1.80
2023-03-11T22:03:27.229Z,1.50
2023-03-11T22:06:01.641Z,1.63
2023-03-11T22:08:28.797Z,2.07
2023-03-11T22:12:11.673Z,1.50
2023-03-11T22:14:38.774Z,0.97
2023-03-11T22:17:06.275Z,1.97
2023-03-11T22:19:33.483Z,2.00
2023-03-11T22:22:00.696Z,1.67
2023-03-11T22:24:27.733Z,1.97
2023-03-11T22:26:54.762Z,2.00
2023-03-11T22:29:22.259Z,1.30
2023-03-11T22:31:49.453Z,1.30
2023-03-11T22:34:16.513Z,2.33
2023-03-11T22:36:43.916Z,1.67
2023-03-11T22:39:11.463Z,2.03
2023-03-11T22:41:38.603Z,1.80
2023-03-11T22:44:05.869Z,1.60
2023-03-11T22:46:33.038Z,1.57
2023-03-11T22:49:00.030Z,1.47
2023-03-11T22:51:27.156Z,1.80
2023-03-11T22:53:54.169Z,2.00
2023-03-11T22:56:21.154Z,1.77
2023-03-11T22:58:48.115Z,2.23
2023-03-11T23:01:16.477Z,1.87
2023-03-11T23:03:43.550Z,1.63
2023-03-11T23:06:12.789Z,1.73
2023-03-11T23:08:39.745Z,2.03
2023-03-11T23:11:08.856Z,1.57
2023-03-11T23:13:36.355Z,2.40
2023-03-11T23:16:08.900Z,2.63
2023-03-11T23:18:36.410Z,1.87
2023-03-11T23:21:03.612Z,2.00
2023-03-11T23:23:31.289Z,2.27
2023-03-11T23:25:58.284Z,1.77
2023-03-11T23:28:25.276Z,1.77
2023-03-11T23:30:52.363Z,1.40
2023-03-11T23:33:19.422Z,1.73
2023-03-11T23:35:46.351Z,1.47
2023-03-11T23:38:13.314Z,0.83
2023-03-11T23:40:41.643Z,0.47
2023-03-11T23:43:08.910Z,0.70
2023-03-11T23:45:35.993Z,0.73
2023-03-11T23:48:03.038Z,0.60
2023-03-11T23:50:29.992Z,0.30
2023-03-11T23:52:56.930Z,0.27
2023-03-11T23:55:23.826Z,0.33
2023-03-11T23:57:50.779Z,0.40
